KGEG

Spokane International Airport

Spokane, Washington, USA
METAR KGEG 140653Z 16016G23KT 10SM FEW075 BKN100 04/M05 A3007 RMK AO2 SLP197 T00441050
Observed Flight Rules
Dec-14 @ 06:53 UTC (48 minutes ago) Visual Flight Rules
Wind Visibility Clouds
160° at 16 knots
 Gusting to 23 knots
10 miles
  • Few at 7,500' AGL
  • Broken at 10,000' AGL
Temperatures Readings
Current 4°C / 39°F
Dewpoint -5°C / 23°F
Humidity 52%
Altimeter 30.07" Hg
Pressure 1019.7 hPa
Elevation 735
METAR KGEG 140653Z 16016G23KT 10SM FEW075 BKN100 04/M05 A3007 RMK AO2 SLP197 T00441050
Observed Flight Rules
Dec-14 @ 06:53 UTC
(48 minutes ago)
VFR
Wind Visibility
160° at 16 knots
 Gusting to 23 knots
10 miles
Clouds
  • Few at 7,500' AGL
  • Broken at 10,000' AGL
Temperature Dewpoint
4°C / 39°F -5°C / 23°F
Humidity Altimeter Pressure
52% 30.07" Hg 1019.7 hPa